<?xml version="1.0" encoding="UTF-8" standalone="no" ?>
<gpx xmlns="http://www.topografix.com/GPX/1/1" xmlns:xsi="http://www.w3.org/2001/XMLSchema-instance" xsi:schemaLocation="http://www.topografix.com/GPX/1/1 http://www.topografix.com/GPX/1/1/gpx.xsd" version="1.1" creator="VisuGPX - https://www.visugpx.com">
  <metadata>
    <name>Saint remy les chevreuse</name>
    <desc><![CDATA[St remy
AVF Antony
octobre2016]]></desc>
  </metadata>
  <trk>
    <name><![CDATA[OR-1929175--Chevreuse:tartelet montabe]]></name>
    <trkseg>
      <trkpt lat="48.70524" lon="2.03784">
        <ele>80</ele>
        <time>2016-11-08T08:01:59Z</time>
      </trkpt>
      <trkpt lat="48.70448" lon="2.03799">
        <ele>82</ele>
        <time>2016-11-08T08:03:59Z</time>
      </trkpt>
      <trkpt lat="48.70427" lon="2.03966">
        <ele>83</ele>
        <time>2016-11-08T08:05:59Z</time>
      </trkpt>
      <trkpt lat="48.70056" lon="2.04102">
        <ele>122</ele>
        <time>2016-11-08T08:07:59Z</time>
      </trkpt>
      <trkpt lat="48.69974" lon="2.04076">
        <ele>138</ele>
        <time>2016-11-08T08:09:59Z</time>
      </trkpt>
      <trkpt lat="48.69126" lon="2.03486">
        <ele>159</ele>
        <time>2016-11-08T08:11:59Z</time>
      </trkpt>
      <trkpt lat="48.69108" lon="2.03382">
        <ele>163</ele>
        <time>2016-11-08T08:13:59Z</time>
      </trkpt>
      <trkpt lat="48.68914" lon="2.03258">
        <ele>169</ele>
        <time>2016-11-08T08:15:59Z</time>
      </trkpt>
      <trkpt lat="48.68923" lon="2.02803">
        <ele>170</ele>
        <time>2016-11-08T08:17:59Z</time>
      </trkpt>
      <trkpt lat="48.688" lon="2.02885">
        <ele>175</ele>
        <time>2016-11-08T08:19:59Z</time>
      </trkpt>
      <trkpt lat="48.68567" lon="2.02867">
        <ele>178</ele>
        <time>2016-11-08T08:21:59Z</time>
      </trkpt>
      <trkpt lat="48.68226" lon="2.0297">
        <ele>171</ele>
        <time>2016-11-08T08:23:59Z</time>
      </trkpt>
      <trkpt lat="48.68206" lon="2.03236">
        <ele>173</ele>
        <time>2016-11-08T08:25:59Z</time>
      </trkpt>
      <trkpt lat="48.67983" lon="2.03371">
        <ele>169</ele>
        <time>2016-11-08T08:27:59Z</time>
      </trkpt>
      <trkpt lat="48.67405" lon="2.03361">
        <ele>172</ele>
        <time>2016-11-08T08:29:59Z</time>
      </trkpt>
      <trkpt lat="48.67282" lon="2.0453">
        <ele>171</ele>
        <time>2016-11-08T08:31:59Z</time>
      </trkpt>
      <trkpt lat="48.67613" lon="2.04635">
        <ele>164</ele>
        <time>2016-11-08T08:33:59Z</time>
      </trkpt>
      <trkpt lat="48.67672" lon="2.04846">
        <ele>163</ele>
        <time>2016-11-08T08:35:59Z</time>
      </trkpt>
      <trkpt lat="48.67678" lon="2.04995">
        <ele>158</ele>
        <time>2016-11-08T08:37:59Z</time>
      </trkpt>
      <trkpt lat="48.67688" lon="2.05209">
        <ele>154</ele>
        <time>2016-11-08T08:39:59Z</time>
      </trkpt>
      <trkpt lat="48.6806" lon="2.05428">
        <ele>158</ele>
        <time>2016-11-08T08:41:59Z</time>
      </trkpt>
      <trkpt lat="48.68236" lon="2.05652">
        <ele>147</ele>
        <time>2016-11-08T08:43:59Z</time>
      </trkpt>
      <trkpt lat="48.68454" lon="2.06154">
        <ele>136</ele>
        <time>2016-11-08T08:45:59Z</time>
      </trkpt>
      <trkpt lat="48.68687" lon="2.0618">
        <ele>125</ele>
        <time>2016-11-08T08:47:59Z</time>
      </trkpt>
      <trkpt lat="48.68929" lon="2.06109">
        <ele>130</ele>
        <time>2016-11-08T08:49:59Z</time>
      </trkpt>
      <trkpt lat="48.69147" lon="2.06096">
        <ele>130</ele>
        <time>2016-11-08T08:51:59Z</time>
      </trkpt>
      <trkpt lat="48.69478" lon="2.05893">
        <ele>117</ele>
        <time>2016-11-08T08:53:59Z</time>
      </trkpt>
      <trkpt lat="48.69783" lon="2.0595">
        <ele>110</ele>
        <time>2016-11-08T08:55:59Z</time>
      </trkpt>
      <trkpt lat="48.69753" lon="2.06112">
        <ele>100</ele>
        <time>2016-11-08T08:57:59Z</time>
      </trkpt>
      <trkpt lat="48.70008" lon="2.063">
        <ele>88</ele>
        <time>2016-11-08T08:59:59Z</time>
      </trkpt>
      <trkpt lat="48.70141" lon="2.06561">
        <ele>82</ele>
        <time>2016-11-08T09:01:59Z</time>
      </trkpt>
      <trkpt lat="48.70209" lon="2.06947">
        <ele>83</ele>
        <time>2016-11-08T09:03:59Z</time>
      </trkpt>
      <trkpt lat="48.70335" lon="2.06963">
        <ele>77</ele>
        <time>2016-11-08T09:05:59Z</time>
      </trkpt>
      <trkpt lat="48.70245" lon="2.06717">
        <ele>79</ele>
        <time>2016-11-08T09:07:59Z</time>
      </trkpt>
      <trkpt lat="48.70224" lon="2.06509">
        <ele>79</ele>
        <time>2016-11-08T09:09:59Z</time>
      </trkpt>
      <trkpt lat="48.70241" lon="2.06242">
        <ele>82</ele>
        <time>2016-11-08T09:11:59Z</time>
      </trkpt>
      <trkpt lat="48.7027" lon="2.05846">
        <ele>83</ele>
        <time>2016-11-08T09:13:59Z</time>
      </trkpt>
      <trkpt lat="48.70227" lon="2.0559">
        <ele>82</ele>
        <time>2016-11-08T09:15:59Z</time>
      </trkpt>
      <trkpt lat="48.70202" lon="2.05381">
        <ele>88</ele>
        <time>2016-11-08T09:17:59Z</time>
      </trkpt>
      <trkpt lat="48.70227" lon="2.05266">
        <ele>90</ele>
        <time>2016-11-08T09:19:59Z</time>
      </trkpt>
      <trkpt lat="48.70385" lon="2.04932">
        <ele>84</ele>
        <time>2016-11-08T09:21:59Z</time>
      </trkpt>
      <trkpt lat="48.70443" lon="2.04781">
        <ele>83</ele>
        <time>2016-11-08T09:23:59Z</time>
      </trkpt>
      <trkpt lat="48.7059" lon="2.04645">
        <ele>79</ele>
        <time>2016-11-08T09:25:59Z</time>
      </trkpt>
      <trkpt lat="48.70644" lon="2.04541">
        <ele>80</ele>
        <time>2016-11-08T09:27:59Z</time>
      </trkpt>
      <trkpt lat="48.70662" lon="2.04306">
        <ele>80</ele>
        <time>2016-11-08T09:29:59Z</time>
      </trkpt>
      <trkpt lat="48.70658" lon="2.04097">
        <ele>81</ele>
        <time>2016-11-08T09:31:59Z</time>
      </trkpt>
    </trkseg>
  </trk>
</gpx>